Time;durP1;ratioP1;P1;durP2;ratioP2;P2;SDS_P1;SDS_P2;PMS_P1;PMS_P2;Temp;Humidity;BMP_temperature;BMP_pressure;BME280_temperature;BME280_humidity;BME280_pressure;Samples;Min_cycle;Max_cycle;Signal;HPM_P1;HPM_P2
2022/09/22 00:01:34;;;;;;;2.72;0.60;;;9.40;99.90;;;;;;6141511;23;20017;-80
2022/09/22 00:04:19;;;;;;;1.35;0.50;;;9.50;99.90;;;;;;6140401;23;20009;-80
2022/09/22 00:07:09;;;;;;;1.88;0.60;;;9.50;99.90;;;;;;6151020;23;20027;-80
2022/09/22 00:09:44;;;;;;;2.67;0.70;;;9.40;99.90;;;;;;6140214;23;20360;-80
2022/09/22 00:13:14;;;;;;;2.15;0.80;;;9.40;99.90;;;;;;6117168;23;20031;-80
2022/09/22 00:16:29;;;;;;;2.75;0.90;;;9.40;99.90;;;;;;6089209;23;20006;-81
2022/09/22 00:19:38;;;;;;;1.77;0.70;;;9.30;99.90;;;;;;6000338;23;20008;-81
2022/09/22 00:25:18;;;;;;;1.55;0.80;;;9.30;99.90;;;;;;6076892;23;20006;-80
2022/09/22 00:31:42;;;;;;;3.22;1.02;;;9.20;99.90;;;;;;6221201;22;20024;-81
2022/09/22 00:34:22;;;;;;;4.75;1.13;;;9.20;99.90;;;;;;6164601;23;20007;-82
2022/09/22 00:37:15;;;;;;;1.90;0.95;;;9.30;99.90;;;;;;6158177;23;20005;-82
2022/09/22 00:40:04;;;;;;;5.88;1.27;;;9.20;99.90;;;;;;6166419;23;20017;-81
2022/09/22 00:42:53;;;;;;;2.92;1.25;;;9.20;99.90;;;;;;6154272;23;20005;-81
2022/09/22 00:45:40;;;;;;;4.40;1.10;;;9.20;99.90;;;;;;6169104;23;20045;-80
2022/09/22 00:48:43;;;;;;;;;;;;;;;;;;;;;
2022/09/22 00:51:46;;;;;;;2.20;0.80;;;9.20;99.90;;;;;;6142175;23;20009;-81
2022/09/22 00:54:32;;;;;;;;;;;9.10;99.90;;;;;;6163796;23;20009;-80
2022/09/22 00:57:52;;;;;;;3.47;1.15;;;9.20;99.90;;;;;;6140754;23;19912;-81
2022/09/22 01:00:31;;;;;;;2.10;1.10;;;9.20;99.90;;;;;;6137373;23;20012;-81
2022/09/22 01:06:33;;;;;;;;;;;;;;;;;;;;;
2022/09/22 01:09:51;;;;;;;2.20;1.02;;;9.10;99.90;;;;;;6100923;23;20014;-80
2022/09/22 01:12:32;;;;;;;1.38;0.75;;;9.10;99.90;;;;;;6048443;23;20006;-80
2022/09/22 01:15:50;;;;;;;2.95;1.10;;;9.10;99.90;;;;;;6118737;23;20009;-82
2022/09/22 01:19:20;;;;;;;4.60;0.90;;;9.10;99.90;;;;;;6100610;23;20005;-80
2022/09/22 01:23:06;;;;;;;2.28;0.70;;;9.10;99.90;;;;;;6149209;23;20005;-81
2022/09/22 01:26:34;;;;;;;3.08;0.60;;;9.10;99.90;;;;;;6133082;23;20028;-81
2022/09/22 01:30:51;;;;;;;;;;;;;;;;;;;;;
2022/09/22 01:33:46;;;;;;;1.63;0.70;;;9.10;99.90;;;;;;6109165;23;20013;-81
2022/09/22 01:36:40;;;;;;;1.67;0.90;;;9.10;99.90;;;;;;6138567;23;20005;-80
2022/09/22 01:39:42;;;;;;;1.73;0.68;;;9.10;99.90;;;;;;6139307;23;20009;-81
2022/09/22 01:43:18;;;;;;;1.52;0.52;;;9.10;99.90;;;;;;6155619;23;20001;-80
2022/09/22 01:46:05;;;;;;;2.47;0.80;;;9.00;99.90;;;;;;6046044;23;20010;-81
2022/09/22 01:49:06;;;;;;;1.55;0.60;;;9.00;99.90;;;;;;6138212;23;20013;-80
2022/09/22 01:52:19;;;;;;;1.52;0.60;;;9.00;99.90;;;;;;6196826;23;20009;-80
2022/09/22 01:55:24;;;;;;;2.50;0.77;;;9.00;99.90;;;;;;6136612;23;20455;-81
2022/09/22 01:58:48;;;;;;;3.28;1.20;;;8.90;99.90;;;;;;6137204;23;20024;-81
2022/09/22 02:01:24;;;;;;;2.60;0.70;;;8.90;99.90;;;;;;6137301;23;20009;-81
2022/09/22 02:04:49;;;;;;;3.20;0.75;;;8.90;99.90;;;;;;6164234;23;20088;-81
2022/09/22 02:07:52;;;;;;;2.55;0.55;;;8.90;99.90;;;;;;6138031;23;20015;-81
2022/09/22 02:10:57;;;;;;;2.53;0.80;;;8.90;99.90;;;;;;6164278;23;20440;-80
2022/09/22 02:14:05;;;;;;;2.20;0.73;;;8.90;99.90;;;;;;6115594;23;20017;-82
2022/09/22 02:17:15;;;;;;;;;;;;;;;;;;;;;
2022/09/22 02:19:57;;;;;;;5.85;2.25;;;8.90;99.90;;;;;;6155204;23;20013;-80
2022/09/22 02:22:58;;;;;;;5.63;1.58;;;8.90;99.90;;;;;;6106042;23;20005;-80
2022/09/22 02:25:38;;;;;;;4.35;1.60;;;8.90;99.90;;;;;;6062447;23;20056;-81
2022/09/22 02:28:15;;;;;;;4.70;1.30;;;8.90;99.90;;;;;;6091241;23;20006;-80
2022/09/22 02:31:06;;;;;;;2.03;0.93;;;8.90;99.90;;;;;;6184551;23;20025;-80
2022/09/22 02:34:19;;;;;;;;;;;;;;;;;;;;;
2022/09/22 02:37:54;;;;;;;2.13;0.85;;;8.80;99.90;;;;;;6134672;23;20001;-80
2022/09/22 02:41:26;;;;;;;2.60;0.80;;;8.80;99.90;;;;;;6197613;23;20495;-80
2022/09/22 02:44:51;;;;;;;2.80;1.00;;;8.80;99.90;;;;;;6194013;23;20017;-80
2022/09/22 02:48:29;;;;;;;3.58;0.70;;;8.80;99.90;;;;;;6118228;23;20378;-80
2022/09/22 02:51:18;;;;;;;2.08;1.05;;;8.80;99.90;;;;;;6113698;23;20005;-80
2022/09/22 02:54:20;;;;;;;2.45;0.90;;;8.70;99.90;;;;;;6180065;23;20001;-80
2022/09/22 02:57:10;;;;;;;2.17;0.85;;;8.80;99.90;;;;;;6109370;23;20009;-80
2022/09/22 03:00:51;;;;;;;3.33;0.90;;;8.70;99.90;;;;;;6183704;23;20024;-80
2022/09/22 03:03:53;;;;;;;2.65;0.88;;;8.70;99.90;;;;;;6150469;23;20011;-80
2022/09/22 03:06:32;;;;;;;2.38;0.80;;;8.70;99.90;;;;;;6189491;23;20008;-80
2022/09/22 03:09:12;;;;;;;2.63;0.85;;;8.70;99.90;;;;;;6147098;23;20022;-81
2022/09/22 03:12:05;;;;;;;;;;;;;;;;;;;;;
2022/09/22 03:15:20;;;;;;;2.60;1.20;;;8.60;99.90;;;;;;6126015;23;20057;-79
2022/09/22 03:18:17;;;;;;;3.20;0.90;;;8.60;99.90;;;;;;6178177;23;20005;-81
2022/09/22 03:20:58;;;;;;;2.90;1.00;;;8.60;99.90;;;;;;6157692;23;20374;-81
2022/09/22 03:24:24;;;;;;;2.55;1.02;;;8.50;99.90;;;;;;6132992;23;20009;-80
2022/09/22 03:27:16;;;;;;;2.45;0.90;;;8.50;99.90;;;;;;6112499;23;20005;-81
2022/09/22 03:30:13;;;;;;;4.07;1.00;;;8.50;99.90;;;;;;6139575;23;20348;-81
2022/09/22 03:33:08;;;;;;;2.80;0.90;;;8.40;99.90;;;;;;6121607;23;20009;-81
2022/09/22 03:35:43;;;;;;;2.88;0.93;;;8.50;99.90;;;;;;6110439;23;20006;-81
2022/09/22 03:38:46;;;;;;;1.83;1.00;;;8.40;99.90;;;;;;6144422;23;20023;-80
2022/09/22 03:41:34;;;;;;;2.28;1.20;;;8.40;99.90;;;;;;6115948;23;20006;-80
2022/09/22 03:44:59;;;;;;;;;;;;;;;;;;;;;
2022/09/22 03:48:15;;;;;;;3.17;0.90;;;8.40;99.90;;;;;;6160417;23;20009;-80
2022/09/22 03:51:37;;;;;;;3.30;0.80;;;8.40;99.90;;;;;;6114658;23;20009;-80
2022/09/22 03:54:57;;;;;;;2.45;1.05;;;8.50;99.90;;;;;;6153995;23;20017;-80
2022/09/22 03:57:51;;;;;;;1.98;0.98;;;8.50;99.90;;;;;;6110450;23;20010;-80
2022/09/22 04:00:41;;;;;;;2.80;0.98;;;8.50;99.90;;;;;;6083349;23;20033;-80
2022/09/22 04:03:13;;;;;;;2.78;1.05;;;8.40;99.90;;;;;;6108053;23;20009;-81
2022/09/22 04:06:11;;;;;;;;;;;;;;;;;;;;;
2022/09/22 04:12:07;;;;;;;;;;;;;;;;;;;;;
2022/09/22 04:15:26;;;;;;;2.50;1.13;;;8.40;99.90;;;;;;6046818;23;20200;-81
2022/09/22 04:18:05;;;;;;;2.55;1.05;;;8.30;99.90;;;;;;6042168;23;20014;-80
2022/09/22 04:20:59;;;;;;;4.43;1.17;;;8.20;99.90;;;;;;6050202;23;20025;-79
2022/09/22 04:23:44;;;;;;;3.65;1.15;;;8.20;99.90;;;;;;6072585;23;20455;-80
2022/09/22 04:26:25;;;;;;;2.22;1.20;;;8.20;99.90;;;;;;6048048;23;20007;-81
2022/09/22 04:32:47;;;;;;;1.70;0.80;;;8.10;99.90;;;;;;6199190;23;20341;-79
2022/09/22 04:35:31;;;;;;;2.92;1.10;;;8.10;99.90;;;;;;6193575;23;20019;-80
2022/09/22 04:38:46;;;;;;;1.83;1.05;;;8.10;99.90;;;;;;6162698;23;20009;-80
2022/09/22 04:44:17;;;;;;;4.07;0.93;;;8.10;99.90;;;;;;6169956;23;20004;-81
2022/09/22 04:47:12;;;;;;;5.95;2.55;;;8.10;99.90;;;;;;6168869;23;20348;-80
2022/09/22 04:53:11;;;;;;;4.07;1.63;;;8.10;99.90;;;;;;6172270;23;20009;-82
2022/09/22 04:57:00;;;;;;;2.70;0.90;;;8.10;99.90;;;;;;6171925;23;20336;-80
2022/09/22 05:00:04;;;;;;;2.80;1.02;;;8.10;99.90;;;;;;6168362;23;20012;-80
2022/09/22 05:03:24;;;;;;;1.88;1.10;;;8.00;99.90;;;;;;6148553;23;20340;-81
2022/09/22 05:05:59;;;;;;;2.03;1.27;;;8.00;99.90;;;;;;6167844;23;20012;-81
2022/09/22 05:09:03;;;;;;;2.85;1.40;;;8.00;99.90;;;;;;6189262;23;20016;-81
2022/09/22 05:15:16;;;;;;;3.97;1.65;;;8.00;99.90;;;;;;6175089;23;19993;-83
2022/09/22 05:18:38;;;;;;;3.65;1.73;;;7.90;99.90;;;;;;6189903;23;19997;-80
2022/09/22 05:21:23;;;;;;;3.80;1.70;;;8.00;99.90;;;;;;6187181;23;20004;-81
2022/09/22 05:30:35;;;;;;;3.15;1.70;;;8.00;99.90;;;;;;6087998;23;20020;-80
2022/09/22 05:36:14;;;;;;;6.80;2.30;;;8.00;99.90;;;;;;6184244;23;20005;-81
2022/09/22 05:39:06;;;;;;;3.78;2.97;;;8.00;99.90;;;;;;6159502;23;20032;-81
2022/09/22 07:37:56;;;;;;;;;;;;;;;;;;;;;
2022/09/22 09:28:12;;;;;;;3.33;1.60;;;16.70;99.90;;;;;;6196641;23;20039;-81
2022/09/22 09:32:26;;;;;;;3.20;1.75;;;16.90;99.90;;;;;;6117446;23;20027;-79
2022/09/22 10:04:43;;;;;;;;;;;;;;;;;;;;;
2022/09/22 10:12:55;;;;;;;5.95;1.20;;;19.10;98.50;;;;;;5983116;24;20458;-82
2022/09/22 11:41:49;;;;;;;2.63;0.85;;;26.80;63.40;;;;;;6157325;23;20261;-83
2022/09/22 11:44:42;;;;;;;2.08;0.60;;;27.00;63.80;;;;;;6166216;23;20009;-82
2022/09/22 11:47:51;;;;;;;2.42;0.70;;;27.50;63.60;;;;;;6144763;23;20009;-85
2022/09/22 11:51:12;;;;;;;2.17;0.95;;;27.90;62.00;;;;;;6165147;23;20027;-82
2022/09/22 11:54:20;;;;;;;2.53;0.90;;;28.60;60.90;;;;;;6168466;23;20028;-83
2022/09/22 11:57:30;;;;;;;1.55;0.52;;;29.00;58.70;;;;;;6101735;23;20344;-83
2022/09/22 12:03:34;;;;;;;2.33;0.88;;;26.70;59.60;;;;;;6143725;23;20019;-82
2022/09/22 12:06:18;;;;;;;2.70;1.20;;;26.60;59.60;;;;;;6131740;23;20005;-82
2022/09/22 12:09:22;;;;;;;8.05;5.53;;;26.30;58.80;;;;;;6144530;23;20011;-82
2022/09/22 12:12:18;;;;;;;2.22;1.30;;;26.40;59.50;;;;;;6147872;23;20019;-82
2022/09/22 12:15:49;;;;;;;;;;;26.30;59.40;;;;;;6163045;23;20014;-82
2022/09/22 12:19:37;;;;;;;2.42;1.10;;;27.00;59.00;;;;;;6164627;23;19910;-82
2022/09/22 12:22:41;;;;;;;1.38;0.40;;;26.80;58.00;;;;;;6151172;23;20031;-82
2022/09/22 12:25:45;;;;;;;1.88;0.70;;;26.00;59.60;;;;;;6152070;23;20011;-83
2022/09/22 12:28:47;;;;;;;1.40;0.60;;;26.90;59.60;;;;;;6157091;23;20001;-82
2022/09/22 12:31:38;;;;;;;3.65;0.60;;;28.30;58.50;;;;;;6171118;23;20425;-83
2022/09/22 12:34:33;;;;;;;1.52;0.50;;;29.40;55.20;;;;;;6195168;23;20344;-83
2022/09/22 12:37:37;;;;;;;1.55;0.50;;;30.30;54.50;;;;;;6170594;23;20008;-83
2022/09/22 12:41:01;;;;;;;2.17;0.50;;;30.90;52.80;;;;;;6169315;23;20019;-82
2022/09/22 12:43:34;;;;;;;2.83;0.45;;;31.40;50.60;;;;;;6188131;23;20009;-83
2022/09/22 12:46:27;;;;;;;2.08;0.50;;;31.80;49.90;;;;;;6167270;23;20028;-83
2022/09/22 12:49:22;;;;;;;3.55;0.50;;;31.90;48.60;;;;;;6151013;23;20016;-83
2022/09/22 12:52:38;;;;;;;3.42;0.50;;;32.10;48.10;;;;;;6170903;23;20008;-83
2022/09/22 12:55:37;;;;;;;1.13;0.30;;;32.10;47.10;;;;;;6144839;23;20005;-83
2022/09/22 12:58:47;;;;;;;2.75;0.98;;;32.50;47.70;;;;;;6187959;23;20005;-84
2022/09/22 13:01:37;;;;;;;4.55;3.65;;;33.00;46.30;;;;;;6194797;23;20016;-82
2022/09/22 13:04:27;;;;;;;5.10;2.25;;;33.30;46.40;;;;;;6185811;23;20005;-83
2022/09/22 13:07:28;;;;;;;1.75;0.60;;;33.40;45.00;;;;;;6190267;23;20005;-83
2022/09/22 13:10:30;;;;;;;2.33;0.50;;;33.30;43.90;;;;;;6173588;23;20468;-83
2022/09/22 13:16:36;;;;;;;1.30;0.50;;;32.40;43.60;;;;;;6196901;23;20015;-83
2022/09/22 13:19:13;;;;;;;0.93;0.40;;;30.60;45.40;;;;;;6183852;23;19997;-83
2022/09/22 13:21:50;;;;;;;2.15;0.50;;;29.20;47.50;;;;;;6182065;23;20016;-84
2022/09/22 13:24:37;;;;;;;1.63;0.55;;;28.70;48.30;;;;;;6185220;23;20019;-83
2022/09/22 13:27:26;;;;;;;;;;;;;;;;;;;;;
2022/09/22 13:30:14;;;;;;;1.30;0.60;;;30.00;47.00;;;;;;6185113;23;20003;-82
2022/09/22 13:33:03;;;;;;;1.03;0.50;;;30.70;46.10;;;;;;6185091;23;20008;-84
2022/09/22 13:36:07;;;;;;;1.27;0.40;;;31.00;45.50;;;;;;6174107;23;20254;-83
2022/09/22 13:39:00;;;;;;;0.95;0.50;;;30.50;46.40;;;;;;6175164;23;20008;-83
2022/09/22 13:41:39;;;;;;;2.47;0.70;;;28.90;47.70;;;;;;6145793;23;20013;-83
2022/09/22 13:44:24;;;;;;;2.17;0.65;;;27.60;49.10;;;;;;6174590;23;20014;-82
2022/09/22 13:47:26;;;;;;;1.80;0.50;;;26.60;50.70;;;;;;6150387;23;20001;-83
2022/09/22 13:53:55;;;;;;;1.70;0.70;;;24.90;53.40;;;;;;6175019;23;20017;-83
2022/09/22 14:01:22;;;;;;;3.58;0.93;;;23.80;55.10;;;;;;6186385;23;20012;-84
2022/09/22 14:04:55;;;;;;;2.75;0.70;;;23.20;55.70;;;;;;6129672;23;20016;-83
2022/09/22 14:08:03;;;;;;;1.85;0.60;;;22.90;56.60;;;;;;6135714;23;20009;-82
2022/09/22 14:10:43;;;;;;;1.83;0.63;;;22.60;57.70;;;;;;6114492;23;20012;-81
2022/09/22 14:13:39;;;;;;;2.05;0.55;;;22.50;57.80;;;;;;6117686;23;20346;-81
2022/09/22 14:16:45;;;;;;;2.65;0.73;;;22.40;58.50;;;;;;6135000;23;20012;-83
2022/09/22 14:19:27;;;;;;;0.90;0.57;;;22.30;58.70;;;;;;6111609;23;20001;-81
2022/09/22 14:22:31;;;;;;;2.60;0.90;;;22.00;58.70;;;;;;6114599;23;20037;-82
2022/09/22 14:25:27;;;;;;;1.15;0.50;;;21.80;59.50;;;;;;6140665;23;20013;-80
2022/09/22 14:28:33;;;;;;;1.30;0.60;;;21.60;60.20;;;;;;6163717;23;20348;-82
2022/09/22 14:31:28;;;;;;;2.13;0.70;;;21.40;61.50;;;;;;6140104;23;20345;-82
2022/09/22 14:34:25;;;;;;;;;;;;;;;;;;;;;
2022/09/22 14:37:06;;;;;;;2.28;0.70;;;21.10;61.10;;;;;;6141082;23;20005;-83
2022/09/22 14:39:49;;;;;;;1.70;0.60;;;21.00;62.00;;;;;;6143303;23;20005;-82
2022/09/22 14:42:28;;;;;;;2.17;0.55;;;20.90;62.00;;;;;;6141161;23;20009;-81
2022/09/22 14:46:00;;;;;;;1.58;0.40;;;20.80;62.30;;;;;;6140289;23;20016;-81
2022/09/22 14:49:03;;;;;;;1.73;0.40;;;20.70;62.40;;;;;;6138055;23;20015;-81
2022/09/22 14:52:21;;;;;;;1.52;0.63;;;20.60;62.20;;;;;;6075405;23;20433;-81
2022/09/22 14:55:34;;;;;;;1.98;0.55;;;20.50;62.30;;;;;;6139943;23;20016;-81
2022/09/22 14:58:45;;;;;;;2.22;0.60;;;20.40;63.00;;;;;;6165922;23;20013;-81
2022/09/22 15:04:53;;;;;;;2.05;0.60;;;20.20;63.30;;;;;;6169318;23;20004;-81
2022/09/22 15:07:52;;;;;;;2.47;0.80;;;20.10;63.90;;;;;;6145176;23;20004;-82
2022/09/22 15:10:34;;;;;;;1.27;0.60;;;20.00;63.60;;;;;;6201708;23;20004;-79
2022/09/22 15:13:50;;;;;;;1.45;0.50;;;20.00;63.90;;;;;;6166974;23;20013;-81
2022/09/22 15:22:27;;;;;;;1.35;0.40;;;19.80;64.40;;;;;;6232060;23;20014;-82
2022/09/22 15:25:28;;;;;;;2.67;0.70;;;19.70;64.70;;;;;;6173564;23;20011;-80
2022/09/22 15:37:11;;;;;;;;;;;;;;;;;;;;;
2022/09/22 15:44:19;;;;;;;1.13;0.40;;;19.30;65.80;;;;;;6046370;23;20045;-81
2022/09/22 16:03:17;;;;;;;;;;;;;;;;;;;;;
2022/09/22 16:15:15;;;;;;;3.22;1.67;;;18.50;69.50;;;;;;6232956;23;20007;-79
2022/09/22 16:19:07;;;;;;;3.50;1.30;;;18.30;69.80;;;;;;6088184;23;20291;-80
2022/09/22 16:30:18;;;;;;;1.92;0.50;;;18.00;70.80;;;;;;6168266;23;20031;-81
2022/09/22 16:38:14;;;;;;;1.85;0.60;;;17.80;71.40;;;;;;6197850;23;20039;-80
2022/09/22 16:49:50;;;;;;;1.02;0.40;;;17.40;72.20;;;;;;6069987;23;20050;-81
2022/09/22 16:52:59;;;;;;;1.52;0.40;;;17.30;72.60;;;;;;6062612;23;20003;-81
2022/09/22 16:56:17;;;;;;;1.73;0.50;;;17.20;72.70;;;;;;6014135;23;20014;-81
2022/09/22 17:00:11;;;;;;;;;;;;;;;;;;;;;
2022/09/22 17:03:30;;;;;;;1.38;0.30;;;16.90;73.40;;;;;;6145937;23;20017;-80
2022/09/22 17:06:30;;;;;;;1.10;0.50;;;16.80;73.90;;;;;;6139167;23;20009;-80
2022/09/22 17:09:57;;;;;;;0.90;0.40;;;16.70;74.00;;;;;;6189595;23;20043;-80
2022/09/22 17:13:34;;;;;;;2.58;0.30;;;16.60;74.50;;;;;;6201724;23;20015;-80
